createdAt,value
2019-03-24T00:00:01.117Z,66.75
2019-03-24T00:02:34.547Z,66.80
2019-03-24T00:05:06.730Z,66.67
2019-03-24T00:07:38.232Z,66.62
2019-03-24T00:10:09.818Z,66.56
2019-03-24T00:12:41.345Z,66.55
2019-03-24T00:15:12.870Z,66.40
2019-03-24T00:17:44.393Z,66.56
2019-03-24T00:20:15.973Z,66.51
2019-03-24T00:22:47.556Z,66.34
2019-03-24T00:25:19.070Z,66.48
2019-03-24T00:27:50.579Z,66.68
2019-03-24T00:30:22.072Z,66.61
2019-03-24T00:32:53.595Z,66.70
2019-03-24T00:35:25.235Z,66.53
2019-03-24T00:37:56.768Z,66.54
2019-03-24T00:40:28.276Z,66.55
2019-03-24T00:42:59.787Z,66.40
2019-03-24T00:45:36.742Z,66.24
2019-03-24T00:48:04.548Z,66.19
2019-03-24T00:50:36.151Z,66.02
2019-03-24T00:53:07.675Z,66.03
2019-03-24T00:55:39.245Z,65.98
2019-03-24T00:58:10.766Z,65.94
2019-03-24T01:00:47.585Z,66.09
2019-03-24T01:03:19.235Z,66.18
2019-03-24T01:05:50.844Z,66.21
2019-03-24T01:08:22.443Z,66.17
2019-03-24T01:10:54.015Z,66.28
2019-03-24T01:13:25.536Z,66.10
2019-03-24T01:15:57.053Z,66.15
2019-03-24T01:18:28.838Z,66.41
2019-03-24T01:21:00.425Z,66.61
2019-03-24T01:23:32.003Z,66.69
2019-03-24T01:26:03.502Z,66.99
2019-03-24T01:28:35.040Z,66.70
2019-03-24T01:31:06.586Z,66.48
2019-03-24T01:33:38.110Z,66.60
2019-03-24T01:36:09.619Z,66.79
2019-03-24T01:38:41.121Z,66.71
2019-03-24T01:41:12.617Z,66.57
2019-03-24T01:43:44.112Z,66.42
2019-03-24T01:46:15.607Z,66.53
2019-03-24T01:48:47.119Z,66.71
2019-03-24T01:51:18.715Z,66.73
2019-03-24T01:53:50.256Z,66.91
2019-03-24T01:56:21.736Z,66.76
2019-03-24T01:58:53.325Z,67.07
2019-03-24T02:01:24.842Z,66.91
2019-03-24T02:03:56.354Z,66.92
2019-03-24T02:06:27.872Z,66.98
2019-03-24T02:08:59.459Z,66.95
2019-03-24T02:11:30.939Z,66.82
2019-03-24T02:14:02.456Z,66.84
2019-03-24T02:16:34.052Z,67.15
2019-03-24T02:19:05.583Z,67.04
2019-03-24T02:21:37.094Z,67.43
2019-03-24T02:24:08.683Z,67.42
2019-03-24T02:26:40.295Z,67.35
2019-03-24T02:29:11.809Z,67.25
2019-03-24T02:31:43.330Z,67.61
2019-03-24T02:34:14.923Z,67.42
2019-03-24T02:36:46.618Z,67.71
2019-03-24T02:39:18.187Z,68.03
2019-03-24T02:41:49.710Z,68.04
2019-03-24T02:44:21.223Z,68.30
2019-03-24T02:46:52.772Z,68.03
2019-03-24T02:49:24.336Z,67.97
2019-03-24T02:51:55.854Z,68.29
2019-03-24T02:54:27.678Z,68.49
2019-03-24T02:56:59.186Z,68.60
2019-03-24T02:59:30.697Z,68.23
2019-03-24T03:02:02.204Z,68.24
2019-03-24T03:04:33.787Z,68.45
2019-03-24T03:07:05.322Z,68.24
2019-03-24T03:09:36.846Z,68.58
2019-03-24T03:12:08.429Z,68.61
2019-03-24T03:14:40.002Z,68.27
2019-03-24T03:17:11.488Z,68.53
2019-03-24T03:19:43.106Z,68.30
2019-03-24T03:22:14.675Z,68.16
2019-03-24T03:24:46.181Z,68.04
2019-03-24T03:27:17.689Z,68.11
2019-03-24T03:29:49.206Z,68.13
2019-03-24T03:32:20.712Z,68.05
2019-03-24T03:34:52.225Z,67.90
2019-03-24T03:37:23.807Z,68.03
2019-03-24T03:39:58.194Z,67.99
2019-03-24T03:42:28.523Z,68.02
2019-03-24T03:45:00.264Z,68.02
2019-03-24T03:47:34.073Z,68.15
2019-03-24T03:50:07.131Z,67.96
2019-03-24T03:52:38.716Z,68.12
2019-03-24T03:55:10.219Z,68.34
2019-03-24T03:57:41.735Z,68.09
2019-03-24T04:00:13.264Z,68.05
2019-03-24T04:02:44.923Z,68.09
2019-03-24T04:05:16.414Z,67.97
2019-03-24T04:07:47.975Z,68.06
2019-03-24T04:10:19.498Z,67.98
2019-03-24T04:12:51.017Z,67.97
2019-03-24T04:15:22.562Z,68.11
2019-03-24T04:17:54.135Z,68.18
2019-03-24T04:20:25.645Z,68.46
2019-03-24T04:22:57.159Z,68.24
2019-03-24T04:25:28.723Z,68.22
2019-03-24T04:28:00.239Z,67.93
2019-03-24T04:30:31.882Z,68.03
2019-03-24T04:33:03.400Z,68.33
2019-03-24T04:35:34.975Z,68.44
2019-03-24T04:38:06.492Z,68.30
2019-03-24T04:40:38.007Z,68.26
2019-03-24T04:43:09.517Z,68.22
2019-03-24T04:45:41.044Z,68.40
2019-03-24T04:48:12.630Z,68.30
2019-03-24T04:50:44.119Z,68.31
2019-03-24T04:53:15.706Z,68.56
2019-03-24T04:55:47.307Z,68.26
2019-03-24T04:58:18.866Z,68.36
2019-03-24T05:00:50.446Z,68.07
2019-03-24T05:03:21.958Z,67.98
2019-03-24T05:05:53.450Z,67.78
2019-03-24T05:08:25.047Z,67.76
2019-03-24T05:10:56.527Z,67.74
2019-03-24T05:13:28.139Z,67.82
2019-03-24T05:15:59.635Z,67.34
2019-03-24T05:18:31.222Z,67.19
2019-03-24T05:21:02.820Z,67.43
2019-03-24T05:23:34.324Z,66.96
2019-03-24T05:26:05.831Z,66.83
2019-03-24T05:28:37.399Z,66.70
2019-03-24T05:31:08.961Z,66.50
2019-03-24T05:33:40.564Z,66.12
2019-03-24T05:36:12.130Z,65.92
2019-03-24T05:38:43.695Z,65.88
2019-03-24T05:41:15.262Z,65.57
2019-03-24T05:43:47.326Z,65.19
2019-03-24T05:46:18.994Z,64.95
2019-03-24T05:48:50.584Z,64.71
2019-03-24T05:51:22.295Z,64.21
2019-03-24T05:53:53.794Z,63.84
2019-03-24T05:56:25.314Z,63.21
2019-03-24T05:58:56.830Z,62.82
2019-03-24T06:01:28.331Z,62.53
2019-03-24T06:03:59.838Z,61.89
2019-03-24T06:06:31.396Z,61.42
2019-03-24T06:09:02.901Z,60.89
2019-03-24T06:11:34.535Z,60.56
2019-03-24T06:14:06.195Z,59.57
2019-03-24T06:16:38.042Z,59.23
2019-03-24T06:19:09.654Z,59.41
2019-03-24T06:21:41.188Z,58.81
2019-03-24T06:24:12.784Z,57.90
2019-03-24T06:26:44.408Z,56.87
2019-03-24T06:29:15.934Z,56.33
2019-03-24T06:31:47.449Z,54.83
2019-03-24T06:34:18.984Z,54.61
2019-03-24T06:36:50.570Z,54.04
2019-03-24T06:39:22.092Z,54.24
2019-03-24T06:41:53.620Z,54.11
2019-03-24T06:44:25.148Z,54.08
2019-03-24T06:46:56.735Z,54.36
2019-03-24T06:49:28.353Z,53.68
2019-03-24T06:51:59.857Z,53.44
2019-03-24T06:54:31.375Z,52.90
2019-03-24T06:57:02.952Z,51.71
2019-03-24T06:59:34.490Z,51.51
2019-03-24T07:02:06.131Z,51.57
2019-03-24T07:04:37.709Z,51.32
2019-03-24T07:07:09.233Z,50.97
2019-03-24T07:09:40.840Z,51.56
2019-03-24T07:12:12.342Z,50.82
2019-03-24T07:14:43.916Z,49.77
2019-03-24T07:17:15.496Z,49.61
2019-03-24T07:19:47.092Z,48.97
2019-03-24T07:22:18.772Z,49.36
2019-03-24T07:24:50.305Z,49.69
2019-03-24T07:27:21.895Z,50.16
2019-03-24T07:29:53.402Z,49.41
2019-03-24T07:32:24.912Z,48.96
2019-03-24T07:34:56.451Z,49.02
2019-03-24T07:37:28.032Z,48.54
2019-03-24T07:39:59.638Z,47.89
2019-03-24T07:42:31.140Z,46.94
2019-03-24T07:45:02.674Z,48.23
2019-03-24T07:47:34.345Z,48.48
2019-03-24T07:50:09.082Z,46.04
2019-03-24T07:52:40.583Z,44.68
2019-03-24T07:55:14.816Z,45.77
2019-03-24T07:57:46.461Z,44.81
2019-03-24T08:00:34.638Z,44.12
2019-03-24T08:03:06.224Z,43.51
2019-03-24T08:05:37.712Z,42.44
2019-03-24T08:08:09.240Z,42.52
2019-03-24T08:10:40.754Z,42.85
2019-03-24T08:13:12.377Z,42.60
2019-03-24T08:15:47.855Z,42.82
2019-03-24T08:18:29.296Z,40.37
2019-03-24T08:20:56.822Z,38.77
2019-03-24T08:23:28.501Z,39.33
2019-03-24T08:26:01.649Z,38.25
2019-03-24T08:28:33.145Z,38.78
2019-03-24T08:31:04.740Z,37.97
2019-03-24T08:33:36.397Z,38.87
2019-03-24T08:36:07.933Z,38.99
2019-03-24T08:38:39.645Z,38.94
2019-03-24T08:41:11.160Z,37.67
2019-03-24T08:43:42.716Z,36.85
2019-03-24T08:46:14.391Z,36.22
2019-03-24T08:48:45.984Z,35.70
2019-03-24T08:51:17.513Z,36.13
2019-03-24T08:53:49.029Z,37.59
2019-03-24T08:56:20.564Z,37.64
2019-03-24T08:58:52.062Z,36.20
2019-03-24T09:01:23.595Z,36.93
2019-03-24T09:03:55.091Z,36.99
2019-03-24T09:06:26.625Z,37.22
2019-03-24T09:08:58.160Z,36.72
2019-03-24T09:11:31.439Z,38.24
2019-03-24T09:14:02.880Z,39.70
2019-03-24T09:16:34.363Z,38.68
2019-03-24T09:19:05.880Z,38.76
2019-03-24T09:21:37.498Z,38.05
2019-03-24T09:24:09.023Z,37.98
2019-03-24T09:26:40.633Z,37.99
2019-03-24T09:29:12.191Z,38.77
2019-03-24T09:31:43.797Z,36.66
2019-03-24T09:34:15.283Z,35.66
2019-03-24T09:36:46.891Z,36.50
2019-03-24T09:39:18.380Z,37.04
2019-03-24T09:41:49.983Z,36.97
2019-03-24T09:44:21.507Z,35.52
2019-03-24T09:46:53.025Z,35.20
2019-03-24T09:49:24.578Z,35.83
2019-03-24T09:51:56.089Z,34.51
2019-03-24T09:54:27.594Z,34.82
2019-03-24T09:56:59.083Z,34.85
2019-03-24T09:59:30.708Z,33.55
2019-03-24T10:02:02.220Z,33.32
2019-03-24T10:04:33.736Z,33.09
2019-03-24T10:07:05.283Z,33.72
2019-03-24T10:09:36.795Z,33.50
2019-03-24T10:12:08.370Z,34.62
2019-03-24T10:14:39.948Z,34.95
2019-03-24T10:17:11.451Z,34.75
2019-03-24T10:19:42.966Z,34.81
2019-03-24T10:22:15.513Z,35.07
2019-03-24T10:24:47.079Z,34.50
2019-03-24T10:27:18.673Z,34.59
2019-03-24T10:29:50.179Z,35.95
2019-03-24T10:32:21.705Z,35.08
2019-03-24T10:34:53.217Z,34.21
2019-03-24T10:37:24.732Z,33.60
2019-03-24T10:39:56.317Z,35.17
2019-03-24T10:42:27.828Z,34.75
2019-03-24T10:44:59.337Z,33.99
2019-03-24T10:47:30.851Z,35.52
2019-03-24T10:50:02.387Z,34.61
2019-03-24T10:52:34.017Z,34.69
2019-03-24T10:55:10.964Z,33.44
2019-03-24T10:57:42.522Z,32.94
2019-03-24T11:00:14.817Z,32.85
2019-03-24T11:02:48.125Z,32.52
2019-03-24T11:05:19.703Z,33.11
2019-03-24T11:07:51.229Z,33.18
2019-03-24T11:10:22.828Z,32.45
2019-03-24T11:12:54.344Z,32.66
2019-03-24T11:15:25.908Z,33.38
2019-03-24T11:17:57.441Z,33.49
2019-03-24T11:20:30.799Z,32.60
2019-03-24T11:23:02.376Z,33.19
2019-03-24T11:25:33.900Z,33.53
2019-03-24T11:28:05.413Z,31.91
2019-03-24T11:30:36.917Z,30.25
2019-03-24T11:33:08.439Z,31.23
2019-03-24T11:35:39.941Z,31.60
2019-03-24T11:38:11.521Z,31.22
2019-03-24T11:40:43.037Z,31.23
2019-03-24T11:43:15.511Z,30.78
2019-03-24T11:45:47.025Z,30.82
2019-03-24T11:48:18.542Z,31.27
2019-03-24T11:50:50.080Z,31.85
2019-03-24T11:53:21.594Z,32.09
2019-03-24T11:55:53.207Z,32.64
2019-03-24T11:58:24.729Z,32.08
2019-03-24T12:00:56.235Z,32.23
2019-03-24T12:03:27.822Z,31.48
2019-03-24T12:05:59.326Z,30.99
2019-03-24T12:08:30.852Z,30.30
2019-03-24T12:11:02.461Z,30.57
2019-03-24T12:13:34.024Z,30.39
2019-03-24T12:16:05.531Z,30.71
2019-03-24T12:18:37.041Z,31.65
2019-03-24T12:21:08.641Z,31.41
2019-03-24T12:23:40.262Z,33.07
2019-03-24T12:26:11.777Z,33.50
2019-03-24T12:28:43.286Z,32.52
2019-03-24T12:31:14.852Z,32.91
2019-03-24T12:33:46.353Z,33.39
2019-03-24T12:36:17.944Z,32.88
2019-03-24T12:38:49.633Z,33.68
2019-03-24T12:41:21.195Z,33.74
2019-03-24T12:43:52.703Z,33.06
2019-03-24T12:46:24.219Z,32.96
2019-03-24T12:48:55.797Z,33.26
2019-03-24T12:51:27.311Z,33.82
2019-03-24T12:53:58.828Z,33.71
2019-03-24T12:56:30.392Z,32.29
2019-03-24T12:59:01.910Z,32.52
2019-03-24T13:01:33.421Z,32.64
2019-03-24T13:04:04.907Z,31.74
2019-03-24T13:06:36.420Z,31.55
2019-03-24T13:09:08.472Z,31.72
2019-03-24T13:11:39.980Z,31.05
2019-03-24T13:14:11.614Z,31.83
2019-03-24T13:16:43.206Z,30.25
2019-03-24T13:19:14.721Z,30.69
2019-03-24T13:21:46.347Z,29.37
2019-03-24T13:24:17.870Z,29.37
2019-03-24T13:26:49.368Z,28.78
2019-03-24T13:29:20.898Z,29.06
2019-03-24T13:31:52.388Z,30.37
2019-03-24T13:34:24.001Z,29.51
2019-03-24T13:36:55.478Z,28.90
2019-03-24T13:39:26.991Z,28.43
2019-03-24T13:41:58.506Z,28.29
2019-03-24T13:44:30.054Z,26.00
2019-03-24T13:47:01.624Z,24.51
2019-03-24T13:49:33.132Z,27.17
2019-03-24T13:52:04.758Z,26.92
2019-03-24T13:54:36.274Z,25.77
2019-03-24T13:57:07.820Z,24.12
2019-03-24T13:59:39.310Z,22.04
2019-03-24T14:02:10.904Z,22.89
2019-03-24T14:04:42.466Z,24.44
2019-03-24T14:07:14.949Z,24.25
2019-03-24T14:09:46.537Z,24.10
2019-03-24T14:12:18.024Z,24.10
2019-03-24T14:14:50.496Z,25.18
2019-03-24T14:17:22.099Z,24.67
2019-03-24T14:19:53.698Z,25.68
2019-03-24T14:22:25.195Z,25.89
2019-03-24T14:24:56.709Z,25.44
2019-03-24T14:27:28.238Z,25.21
2019-03-24T14:29:59.848Z,26.01
2019-03-24T14:32:31.370Z,27.09
2019-03-24T14:35:02.887Z,27.42
2019-03-24T14:37:34.398Z,27.32
2019-03-24T14:40:07.240Z,26.98
2019-03-24T14:42:38.741Z,27.48
2019-03-24T14:45:10.411Z,27.26
2019-03-24T14:47:41.911Z,27.08
2019-03-24T14:50:13.495Z,26.72
2019-03-24T14:52:44.955Z,27.52
2019-03-24T14:55:16.472Z,27.10
2019-03-24T14:57:48.056Z,27.78
2019-03-24T15:00:42.720Z,28.21
2019-03-24T15:03:14.288Z,28.52
2019-03-24T15:05:45.866Z,29.04
2019-03-24T15:08:17.458Z,28.70
2019-03-24T15:10:48.982Z,28.91
2019-03-24T15:13:20.508Z,28.88
2019-03-24T15:15:52.026Z,29.17
2019-03-24T15:18:23.615Z,29.02
2019-03-24T15:21:05.177Z,28.91
2019-03-24T15:23:28.531Z,29.01
2019-03-24T15:26:01.181Z,29.33
2019-03-24T15:28:33.772Z,29.49
2019-03-24T15:31:05.293Z,29.25
2019-03-24T15:33:36.807Z,29.38
2019-03-24T15:36:08.409Z,29.61
2019-03-24T15:38:39.990Z,29.97
2019-03-24T15:41:11.522Z,30.17
2019-03-24T15:43:43.036Z,30.13
2019-03-24T15:46:14.562Z,30.17
2019-03-24T15:48:46.068Z,30.44
2019-03-24T15:51:17.673Z,30.68
2019-03-24T15:53:49.276Z,30.82
2019-03-24T15:56:20.781Z,31.15
2019-03-24T15:58:52.364Z,31.16
2019-03-24T16:01:23.873Z,31.24
2019-03-24T16:03:55.461Z,31.45
2019-03-24T16:06:27.039Z,31.53
2019-03-24T16:08:58.590Z,32.06
2019-03-24T16:11:30.322Z,32.49
2019-03-24T16:14:01.835Z,32.84
2019-03-24T16:16:33.350Z,33.17
2019-03-24T16:19:04.853Z,32.60
2019-03-24T16:21:36.371Z,31.90
2019-03-24T16:24:07.953Z,31.80
2019-03-24T16:26:39.463Z,31.56
2019-03-24T16:29:11.108Z,31.41
2019-03-24T16:31:42.626Z,31.45
2019-03-24T16:34:14.115Z,31.77
2019-03-24T16:36:48.396Z,31.66
2019-03-24T16:39:19.939Z,32.33
2019-03-24T16:41:54.580Z,32.63
2019-03-24T16:44:26.069Z,32.57
2019-03-24T16:46:57.581Z,33.03
2019-03-24T16:49:29.090Z,33.29
2019-03-24T16:52:00.604Z,33.37
2019-03-24T16:54:32.091Z,33.53
2019-03-24T16:57:03.608Z,33.79
2019-03-24T16:59:35.123Z,34.18
2019-03-24T17:02:06.688Z,34.07
2019-03-24T17:04:38.175Z,33.92
2019-03-24T17:07:09.687Z,34.05
2019-03-24T17:09:41.204Z,34.20
2019-03-24T17:12:12.778Z,34.39
2019-03-24T17:14:44.354Z,34.30
2019-03-24T17:17:15.915Z,34.51
2019-03-24T17:19:47.524Z,34.87
2019-03-24T17:22:19.031Z,34.72
2019-03-24T17:24:50.584Z,34.23
2019-03-24T17:27:22.114Z,34.66
2019-03-24T17:29:53.702Z,34.66
2019-03-24T17:32:25.247Z,34.10
2019-03-24T17:34:56.737Z,34.17
2019-03-24T17:37:29.998Z,34.39
2019-03-24T17:40:01.691Z,34.53
2019-03-24T17:42:34.764Z,34.64
2019-03-24T17:45:10.954Z,34.58
2019-03-24T17:47:42.536Z,34.54
2019-03-24T17:50:14.210Z,34.16
2019-03-24T17:52:46.162Z,34.02
2019-03-24T17:55:27.203Z,34.22
2019-03-24T17:57:51.052Z,33.91
2019-03-24T18:00:41.657Z,34.27
2019-03-24T18:03:13.332Z,33.81
2019-03-24T18:05:44.983Z,34.18
2019-03-24T18:08:16.493Z,34.32
2019-03-24T18:10:48.007Z,34.41
2019-03-24T18:13:20.504Z,34.52
2019-03-24T18:15:52.017Z,35.42
2019-03-24T18:18:23.547Z,35.44
2019-03-24T18:20:55.140Z,35.32
2019-03-24T18:23:26.661Z,35.24
2019-03-24T18:25:58.189Z,35.39
2019-03-24T18:28:29.688Z,36.10
2019-03-24T18:31:01.344Z,36.10
2019-03-24T18:33:32.949Z,35.72
2019-03-24T18:36:04.563Z,35.77
2019-03-24T18:38:36.147Z,36.84
2019-03-24T18:41:07.713Z,36.06
2019-03-24T18:43:39.301Z,36.52
2019-03-24T18:46:10.870Z,36.55
2019-03-24T18:48:42.363Z,36.82
2019-03-24T18:51:13.951Z,36.91
2019-03-24T18:53:46.843Z,37.11
2019-03-24T18:56:18.380Z,37.26
2019-03-24T18:58:49.906Z,37.27
2019-03-24T19:01:21.442Z,37.36
2019-03-24T19:03:52.960Z,37.52
2019-03-24T19:06:24.552Z,37.83
2019-03-24T19:08:56.078Z,37.75
2019-03-24T19:11:27.702Z,38.03
2019-03-24T19:13:59.445Z,37.91
2019-03-24T19:16:31.058Z,37.78
2019-03-24T19:19:02.630Z,38.65
2019-03-24T19:21:34.652Z,38.53
2019-03-24T19:24:06.316Z,39.10
2019-03-24T19:26:40.330Z,38.44
2019-03-24T19:29:11.994Z,38.60
2019-03-24T19:31:43.641Z,38.28
2019-03-24T19:34:15.215Z,38.77
2019-03-24T19:36:46.801Z,38.96
2019-03-24T19:39:18.335Z,38.68
2019-03-24T19:41:51.715Z,38.92
2019-03-24T19:44:23.288Z,39.23
2019-03-24T19:46:55.847Z,39.54
2019-03-24T19:49:27.353Z,39.19
2019-03-24T19:51:58.874Z,39.37
2019-03-24T19:54:30.423Z,39.88
2019-03-24T19:57:02.113Z,40.03
2019-03-24T19:59:33.759Z,39.95
2019-03-24T20:02:05.245Z,39.83
2019-03-24T20:04:36.812Z,40.34
2019-03-24T20:07:08.371Z,39.76
2019-03-24T20:09:39.965Z,40.08
2019-03-24T20:12:11.616Z,40.89
2019-03-24T20:14:43.196Z,40.36
2019-03-24T20:17:14.779Z,40.12
2019-03-24T20:19:46.305Z,40.32
2019-03-24T20:22:17.841Z,40.49
2019-03-24T20:24:49.484Z,40.60
2019-03-24T20:27:21.064Z,40.89
2019-03-24T20:29:52.585Z,40.96
2019-03-24T20:32:25.165Z,41.28
2019-03-24T20:34:56.734Z,41.32
2019-03-24T20:37:28.242Z,41.54
2019-03-24T20:39:59.746Z,41.66
2019-03-24T20:42:31.255Z,41.77
2019-03-24T20:45:04.518Z,41.80
2019-03-24T20:47:36.156Z,42.02
2019-03-24T20:50:10.737Z,42.16
2019-03-24T20:52:42.267Z,42.29
2019-03-24T20:55:13.903Z,42.45
2019-03-24T20:57:45.463Z,42.50
2019-03-24T21:00:21.465Z,42.48
2019-03-24T21:02:53.042Z,42.38
2019-03-24T21:05:24.621Z,42.01
2019-03-24T21:07:56.216Z,41.80
2019-03-24T21:10:27.725Z,41.91
2019-03-24T21:12:59.301Z,41.89
2019-03-24T21:15:30.877Z,41.94
2019-03-24T21:18:02.383Z,42.09
2019-03-24T21:20:33.960Z,42.11
2019-03-24T21:23:05.667Z,42.07
2019-03-24T21:25:37.181Z,42.22
2019-03-24T21:28:08.697Z,42.50
2019-03-24T21:30:41.332Z,42.93
2019-03-24T21:33:13.999Z,43.24
2019-03-24T21:35:45.587Z,42.82
2019-03-24T21:38:17.110Z,43.63
2019-03-24T21:40:48.640Z,44.04
2019-03-24T21:43:20.155Z,43.47
2019-03-24T21:45:51.659Z,43.41
2019-03-24T21:48:23.244Z,43.70
2019-03-24T21:50:54.803Z,44.29
2019-03-24T21:53:26.370Z,44.24
2019-03-24T21:55:57.871Z,44.77
2019-03-24T21:58:29.540Z,44.82
2019-03-24T22:01:01.066Z,44.91
2019-03-24T22:03:32.640Z,45.01
2019-03-24T22:06:04.216Z,45.53
2019-03-24T22:08:35.795Z,46.58
2019-03-24T22:11:07.380Z,46.88
2019-03-24T22:13:39.035Z,47.44
2019-03-24T22:16:10.595Z,47.76
2019-03-24T22:18:42.959Z,47.19
2019-03-24T22:21:15.561Z,46.55
2019-03-24T22:23:52.163Z,46.64
2019-03-24T22:26:20.406Z,46.93
2019-03-24T22:28:51.922Z,47.37
2019-03-24T22:31:23.454Z,47.38
2019-03-24T22:33:55.027Z,47.56
2019-03-24T22:36:26.576Z,47.66
2019-03-24T22:38:58.081Z,48.02
2019-03-24T22:41:31.235Z,49.25
2019-03-24T22:44:02.803Z,51.54
2019-03-24T22:46:34.304Z,50.50
2019-03-24T22:49:05.798Z,50.44
2019-03-24T22:51:37.450Z,50.65
2019-03-24T22:54:08.965Z,50.69
2019-03-24T22:56:41.550Z,50.17
2019-03-24T22:59:13.118Z,50.58
2019-03-24T23:01:45.791Z,51.05
2019-03-24T23:04:17.358Z,52.73
2019-03-24T23:06:48.867Z,52.70
2019-03-24T23:09:20.386Z,53.32
2019-03-24T23:11:51.886Z,53.76
2019-03-24T23:14:23.422Z,54.09
2019-03-24T23:16:54.937Z,54.31
2019-03-24T23:19:26.534Z,53.58
2019-03-24T23:21:58.132Z,53.70
2019-03-24T23:24:29.736Z,53.96
2019-03-24T23:27:01.335Z,53.86
2019-03-24T23:29:32.857Z,54.09
2019-03-24T23:32:04.511Z,53.96
2019-03-24T23:34:37.043Z,54.07
2019-03-24T23:37:08.584Z,54.12
2019-03-24T23:39:40.223Z,54.96
2019-03-24T23:42:11.729Z,54.49
2019-03-24T23:44:43.241Z,55.03
2019-03-24T23:47:14.759Z,55.74
2019-03-24T23:49:46.274Z,56.09
2019-03-24T23:52:17.839Z,56.02
2019-03-24T23:54:49.493Z,56.01
2019-03-24T23:57:21.988Z,55.84
2019-03-24T23:59:53.507Z,55.59
